Strona główna
METAR-TAF:

METAR-TAF

Lotnisko :

Morlaix, Francja

Szerokość geograficzna: 48-36N, Długość geograficzna: 3-49W, wysokość: 84 m

Aktualna obserwacja pogody

Raport powstał 30 minut temu, godzina 11:30 UTC
Wiatr 5 kt od południowo-południowy wschód, zmienny między południowy wschód i południe
Temperatura 9°C
Wilgotność 87%
Ciśnienie 1000 hPa
Widzialność 10 km lub więcej
Brak chmur poniżej 1500 m i brak chmur cumulonimbus

METAR: LFRU 161130Z AUTO 15005KT 130V190 CAVOK 09/07 Q1000

czas: 13:00 (12:00 UTC)


TAF: brakujący

Obserwacja i prognoza pogody dla ponad 4000 lotnisk (raport METAR i TAF).

Dostępne stacje oznaczono żółtymi i czerwonymi punktami na mapie.

Najedź kursorem aby zobaczyć nazwę stacji.

Kliknij aby zobaczyć obserwacje i prognozy pogody.

Aby zmienić mapę: kliknij na zielony przycisk z czarnym krzyżykiem, aby powiększyć; na zielony przycisk z myślnikiem, aby pomniejszyć; na zielone strzałki, aby przejść do map sąsiednich.


METAR-TAF: